sensor_id;sensor_type;location;lat;lon;timestamp;P1;durP1;ratioP1;P2;durP2;ratioP2
12660;SDS011;39039;51.802;5.710;2023-02-28T00:01:10;21.00;;;19.20;;
12660;SDS011;39039;51.802;5.710;2023-02-28T00:03:37;19.73;;;18.03;;
12660;SDS011;39039;51.802;5.710;2023-02-28T00:06:06;21.63;;;19.53;;
12660;SDS011;39039;51.802;5.710;2023-02-28T00:08:35;19.97;;;17.80;;
12660;SDS011;39039;51.802;5.710;2023-02-28T00:11:03;21.10;;;18.93;;
12660;SDS011;39039;51.802;5.710;2023-02-28T00:13:30;20.03;;;18.10;;
12660;SDS011;39039;51.802;5.710;2023-02-28T00:15:58;21.90;;;19.77;;
12660;SDS011;39039;51.802;5.710;2023-02-28T00:18:26;20.57;;;18.57;;
12660;SDS011;39039;51.802;5.710;2023-02-28T00:20:53;20.57;;;18.63;;
12660;SDS011;39039;51.802;5.710;2023-02-28T00:23:20;21.20;;;19.10;;
12660;SDS011;39039;51.802;5.710;2023-02-28T00:25:48;21.07;;;18.97;;
12660;SDS011;39039;51.802;5.710;2023-02-28T00:28:16;20.37;;;18.13;;
12660;SDS011;39039;51.802;5.710;2023-02-28T00:30:44;18.10;;;16.53;;
12660;SDS011;39039;51.802;5.710;2023-02-28T00:33:11;21.97;;;19.93;;
12660;SDS011;39039;51.802;5.710;2023-02-28T00:35:38;18.10;;;16.33;;
12660;SDS011;39039;51.802;5.710;2023-02-28T00:38:05;20.17;;;18.13;;
12660;SDS011;39039;51.802;5.710;2023-02-28T00:40:32;20.87;;;18.77;;
12660;SDS011;39039;51.802;5.710;2023-02-28T00:43:00;20.90;;;19.20;;
12660;SDS011;39039;51.802;5.710;2023-02-28T00:45:28;19.03;;;17.40;;
12660;SDS011;39039;51.802;5.710;2023-02-28T00:47:55;20.93;;;18.90;;
12660;SDS011;39039;51.802;5.710;2023-02-28T00:50:22;19.50;;;17.87;;
12660;SDS011;39039;51.802;5.710;2023-02-28T00:52:49;18.90;;;17.30;;
12660;SDS011;39039;51.802;5.710;2023-02-28T00:55:16;18.80;;;17.23;;
12660;SDS011;39039;51.802;5.710;2023-02-28T00:57:43;18.97;;;17.30;;
12660;SDS011;39039;51.802;5.710;2023-02-28T01:00:12;20.93;;;18.83;;
12660;SDS011;39039;51.802;5.710;2023-02-28T01:02:39;17.87;;;16.20;;
12660;SDS011;39039;51.802;5.710;2023-02-28T01:05:06;17.63;;;15.97;;
12660;SDS011;39039;51.802;5.710;2023-02-28T01:07:34;17.93;;;16.30;;
12660;SDS011;39039;51.802;5.710;2023-02-28T01:10:00;18.33;;;16.67;;
12660;SDS011;39039;51.802;5.710;2023-02-28T01:12:27;20.20;;;18.60;;
12660;SDS011;39039;51.802;5.710;2023-02-28T01:14:54;22.33;;;20.40;;
12660;SDS011;39039;51.802;5.710;2023-02-28T01:17:23;28.13;;;25.73;;
12660;SDS011;39039;51.802;5.710;2023-02-28T01:19:52;28.93;;;26.63;;
12660;SDS011;39039;51.802;5.710;2023-02-28T01:22:19;27.83;;;25.60;;
12660;SDS011;39039;51.802;5.710;2023-02-28T01:24:46;22.13;;;20.27;;
12660;SDS011;39039;51.802;5.710;2023-02-28T01:27:13;20.77;;;18.90;;
12660;SDS011;39039;51.802;5.710;2023-02-28T01:29:40;17.57;;;16.03;;
12660;SDS011;39039;51.802;5.710;2023-02-28T01:32:07;21.43;;;19.40;;
12660;SDS011;39039;51.802;5.710;2023-02-28T01:34:36;18.67;;;16.93;;
12660;SDS011;39039;51.802;5.710;2023-02-28T01:37:03;18.57;;;16.87;;
12660;SDS011;39039;51.802;5.710;2023-02-28T01:39:30;20.53;;;18.73;;
12660;SDS011;39039;51.802;5.710;2023-02-28T01:41:57;19.27;;;17.70;;
12660;SDS011;39039;51.802;5.710;2023-02-28T01:47:09;17.00;;;15.47;;
12660;SDS011;39039;51.802;5.710;2023-02-28T01:49:38;33.33;;;31.07;;
12660;SDS011;39039;51.802;5.710;2023-02-28T01:52:05;45.07;;;42.17;;
12660;SDS011;39039;51.802;5.710;2023-02-28T01:54:33;58.33;;;55.13;;
12660;SDS011;39039;51.802;5.710;2023-02-28T01:57:01;53.63;;;50.40;;
12660;SDS011;39039;51.802;5.710;2023-02-28T01:59:33;27.20;;;25.40;;
12660;SDS011;39039;51.802;5.710;2023-02-28T02:02:02;24.50;;;22.57;;
12660;SDS011;39039;51.802;5.710;2023-02-28T02:04:32;23.43;;;21.60;;
12660;SDS011;39039;51.802;5.710;2023-02-28T02:07:02;23.60;;;21.67;;
12660;SDS011;39039;51.802;5.710;2023-02-28T02:09:30;23.33;;;21.33;;
12660;SDS011;39039;51.802;5.710;2023-02-28T02:11:57;26.20;;;24.17;;
12660;SDS011;39039;51.802;5.710;2023-02-28T02:14:31;24.57;;;22.77;;
12660;SDS011;39039;51.802;5.710;2023-02-28T02:17:05;24.37;;;22.47;;
12660;SDS011;39039;51.802;5.710;2023-02-28T02:19:52;22.33;;;20.43;;
12660;SDS011;39039;51.802;5.710;2023-02-28T02:22:38;21.87;;;20.10;;
12660;SDS011;39039;51.802;5.710;2023-02-28T02:25:23;19.87;;;18.17;;
12660;SDS011;39039;51.802;5.710;2023-02-28T02:31:06;24.90;;;22.90;;
12660;SDS011;39039;51.802;5.710;2023-02-28T02:36:50;30.60;;;28.60;;
12660;SDS011;39039;51.802;5.710;2023-02-28T02:39:19;29.77;;;27.80;;
12660;SDS011;39039;51.802;5.710;2023-02-28T02:41:54;25.10;;;23.30;;
12660;SDS011;39039;51.802;5.710;2023-02-28T02:44:26;21.77;;;20.00;;
12660;SDS011;39039;51.802;5.710;2023-02-28T02:46:58;20.03;;;18.43;;
12660;SDS011;39039;51.802;5.710;2023-02-28T02:49:31;18.07;;;16.63;;
12660;SDS011;39039;51.802;5.710;2023-02-28T02:52:01;17.77;;;16.23;;
12660;SDS011;39039;51.802;5.710;2023-02-28T02:54:30;18.37;;;16.70;;
12660;SDS011;39039;51.802;5.710;2023-02-28T02:57:01;19.80;;;17.93;;
12660;SDS011;39039;51.802;5.710;2023-02-28T02:59:31;18.03;;;16.63;;
12660;SDS011;39039;51.802;5.710;2023-02-28T03:02:00;20.63;;;18.80;;
12660;SDS011;39039;51.802;5.710;2023-02-28T03:04:32;19.50;;;17.97;;
12660;SDS011;39039;51.802;5.710;2023-02-28T03:07:04;18.83;;;17.13;;
12660;SDS011;39039;51.802;5.710;2023-02-28T03:09:32;19.27;;;17.57;;
12660;SDS011;39039;51.802;5.710;2023-02-28T03:12:01;21.40;;;19.67;;
12660;SDS011;39039;51.802;5.710;2023-02-28T03:14:35;19.20;;;17.53;;
12660;SDS011;39039;51.802;5.710;2023-02-28T03:20:00;19.93;;;18.30;;
12660;SDS011;39039;51.802;5.710;2023-02-28T03:22:38;18.87;;;17.23;;
12660;SDS011;39039;51.802;5.710;2023-02-28T03:25:08;20.43;;;18.50;;
12660;SDS011;39039;51.802;5.710;2023-02-28T03:27:46;17.60;;;16.10;;
12660;SDS011;39039;51.802;5.710;2023-02-28T03:30:17;20.40;;;18.80;;
12660;SDS011;39039;51.802;5.710;2023-02-28T03:32:50;19.60;;;18.00;;
12660;SDS011;39039;51.802;5.710;2023-02-28T03:35:21;19.43;;;17.67;;
12660;SDS011;39039;51.802;5.710;2023-02-28T03:37:50;17.83;;;16.43;;
12660;SDS011;39039;51.802;5.710;2023-02-28T03:40:19;18.90;;;17.23;;
12660;SDS011;39039;51.802;5.710;2023-02-28T03:42:49;17.23;;;15.83;;
12660;SDS011;39039;51.802;5.710;2023-02-28T03:45:22;19.37;;;17.47;;
12660;SDS011;39039;51.802;5.710;2023-02-28T03:47:52;17.80;;;16.23;;
12660;SDS011;39039;51.802;5.710;2023-02-28T03:50:22;18.33;;;16.73;;
12660;SDS011;39039;51.802;5.710;2023-02-28T03:52:53;18.83;;;16.77;;
12660;SDS011;39039;51.802;5.710;2023-02-28T03:55:26;16.67;;;15.33;;
12660;SDS011;39039;51.802;5.710;2023-02-28T03:57:56;18.00;;;16.40;;
12660;SDS011;39039;51.802;5.710;2023-02-28T04:00:27;17.97;;;16.47;;
12660;SDS011;39039;51.802;5.710;2023-02-28T04:02:54;17.77;;;16.17;;
12660;SDS011;39039;51.802;5.710;2023-02-28T04:05:23;17.83;;;16.43;;
12660;SDS011;39039;51.802;5.710;2023-02-28T04:07:50;16.27;;;14.70;;
12660;SDS011;39039;51.802;5.710;2023-02-28T04:10:17;17.73;;;16.23;;
12660;SDS011;39039;51.802;5.710;2023-02-28T04:12:44;17.77;;;16.40;;
12660;SDS011;39039;51.802;5.710;2023-02-28T04:15:11;17.80;;;16.40;;
12660;SDS011;39039;51.802;5.710;2023-02-28T04:17:38;18.13;;;16.57;;
12660;SDS011;39039;51.802;5.710;2023-02-28T04:20:06;21.33;;;19.20;;
12660;SDS011;39039;51.802;5.710;2023-02-28T04:22:36;20.97;;;19.33;;
12660;SDS011;39039;51.802;5.710;2023-02-28T04:25:04;18.90;;;17.10;;
12660;SDS011;39039;51.802;5.710;2023-02-28T04:27:31;16.60;;;15.23;;
12660;SDS011;39039;51.802;5.710;2023-02-28T04:29:58;17.23;;;15.60;;
12660;SDS011;39039;51.802;5.710;2023-02-28T04:32:25;19.20;;;17.70;;
12660;SDS011;39039;51.802;5.710;2023-02-28T04:34:52;18.57;;;17.07;;
12660;SDS011;39039;51.802;5.710;2023-02-28T04:37:19;19.70;;;18.00;;
12660;SDS011;39039;51.802;5.710;2023-02-28T04:39:54;18.60;;;17.03;;
12660;SDS011;39039;51.802;5.710;2023-02-28T04:42:20;20.23;;;18.60;;
12660;SDS011;39039;51.802;5.710;2023-02-28T04:44:48;18.50;;;17.03;;
12660;SDS011;39039;51.802;5.710;2023-02-28T04:47:15;20.87;;;19.30;;
12660;SDS011;39039;51.802;5.710;2023-02-28T04:49:42;20.57;;;19.07;;
12660;SDS011;39039;51.802;5.710;2023-02-28T04:52:09;19.57;;;18.07;;
12660;SDS011;39039;51.802;5.710;2023-02-28T04:54:38;18.27;;;16.77;;
12660;SDS011;39039;51.802;5.710;2023-02-28T04:57:06;19.23;;;17.63;;
12660;SDS011;39039;51.802;5.710;2023-02-28T04:59:33;17.40;;;15.80;;
12660;SDS011;39039;51.802;5.710;2023-02-28T05:02:00;19.17;;;17.67;;
12660;SDS011;39039;51.802;5.710;2023-02-28T05:04:31;17.23;;;15.77;;
12660;SDS011;39039;51.802;5.710;2023-02-28T05:06:59;20.10;;;18.60;;
12660;SDS011;39039;51.802;5.710;2023-02-28T05:09:26;17.63;;;16.33;;
12660;SDS011;39039;51.802;5.710;2023-02-28T05:11:53;16.37;;;15.07;;
12660;SDS011;39039;51.802;5.710;2023-02-28T05:14:23;17.33;;;16.03;;
12660;SDS011;39039;51.802;5.710;2023-02-28T05:16:50;18.87;;;17.20;;
12660;SDS011;39039;51.802;5.710;2023-02-28T05:19:17;17.43;;;15.80;;
12660;SDS011;39039;51.802;5.710;2023-02-28T05:21:49;19.83;;;18.13;;
12660;SDS011;39039;51.802;5.710;2023-02-28T05:24:17;17.90;;;16.37;;
12660;SDS011;39039;51.802;5.710;2023-02-28T05:26:47;19.43;;;17.73;;
12660;SDS011;39039;51.802;5.710;2023-02-28T05:29:15;19.47;;;18.00;;
12660;SDS011;39039;51.802;5.710;2023-02-28T05:31:43;17.57;;;16.27;;
12660;SDS011;39039;51.802;5.710;2023-02-28T05:34:10;19.33;;;17.83;;
12660;SDS011;39039;51.802;5.710;2023-02-28T05:36:37;19.87;;;18.47;;
12660;SDS011;39039;51.802;5.710;2023-02-28T05:39:05;21.03;;;19.40;;
12660;SDS011;39039;51.802;5.710;2023-02-28T05:41:32;19.13;;;17.47;;
12660;SDS011;39039;51.802;5.710;2023-02-28T05:43:59;17.27;;;15.77;;
12660;SDS011;39039;51.802;5.710;2023-02-28T05:46:26;16.90;;;15.60;;
12660;SDS011;39039;51.802;5.710;2023-02-28T05:48:55;17.83;;;16.53;;
12660;SDS011;39039;51.802;5.710;2023-02-28T05:51:24;16.93;;;15.73;;
12660;SDS011;39039;51.802;5.710;2023-02-28T05:53:51;16.43;;;15.27;;
12660;SDS011;39039;51.802;5.710;2023-02-28T05:56:18;17.00;;;15.70;;
12660;SDS011;39039;51.802;5.710;2023-02-28T05:58:45;15.10;;;14.00;;
12660;SDS011;39039;51.802;5.710;2023-02-28T06:01:19;17.87;;;16.50;;
12660;SDS011;39039;51.802;5.710;2023-02-28T06:03:47;16.20;;;14.83;;
12660;SDS011;39039;51.802;5.710;2023-02-28T06:06:15;17.13;;;15.73;;
12660;SDS011;39039;51.802;5.710;2023-02-28T06:08:42;16.07;;;14.80;;
12660;SDS011;39039;51.802;5.710;2023-02-28T06:11:10;15.47;;;14.27;;
12660;SDS011;39039;51.802;5.710;2023-02-28T06:13:37;19.80;;;18.40;;
12660;SDS011;39039;51.802;5.710;2023-02-28T06:16:05;23.07;;;21.33;;
12660;SDS011;39039;51.802;5.710;2023-02-28T06:18:32;18.97;;;17.67;;
12660;SDS011;39039;51.802;5.710;2023-02-28T06:20:59;18.43;;;17.07;;
12660;SDS011;39039;51.802;5.710;2023-02-28T06:23:28;19.87;;;18.53;;
12660;SDS011;39039;51.802;5.710;2023-02-28T06:25:54;18.13;;;16.67;;
12660;SDS011;39039;51.802;5.710;2023-02-28T06:28:23;15.27;;;14.23;;
12660;SDS011;39039;51.802;5.710;2023-02-28T06:30:50;17.03;;;15.67;;
12660;SDS011;39039;51.802;5.710;2023-02-28T06:33:17;16.53;;;15.17;;
12660;SDS011;39039;51.802;5.710;2023-02-28T06:35:44;14.63;;;13.63;;
12660;SDS011;39039;51.802;5.710;2023-02-28T06:38:11;13.97;;;12.83;;
12660;SDS011;39039;51.802;5.710;2023-02-28T06:40:39;15.53;;;14.37;;
12660;SDS011;39039;51.802;5.710;2023-02-28T06:43:07;16.20;;;14.83;;
12660;SDS011;39039;51.802;5.710;2023-02-28T06:45:34;19.83;;;18.57;;
12660;SDS011;39039;51.802;5.710;2023-02-28T06:48:01;16.10;;;14.77;;
12660;SDS011;39039;51.802;5.710;2023-02-28T06:50:28;14.43;;;13.20;;
12660;SDS011;39039;51.802;5.710;2023-02-28T06:52:57;17.07;;;15.73;;
12660;SDS011;39039;51.802;5.710;2023-02-28T06:55:24;24.43;;;22.60;;
12660;SDS011;39039;51.802;5.710;2023-02-28T06:57:52;33.90;;;31.93;;
12660;SDS011;39039;51.802;5.710;2023-02-28T07:00:20;32.33;;;30.00;;
12660;SDS011;39039;51.802;5.710;2023-02-28T07:02:47;36.30;;;34.30;;
12660;SDS011;39039;51.802;5.710;2023-02-28T07:05:14;20.20;;;18.53;;
12660;SDS011;39039;51.802;5.710;2023-02-28T07:07:41;19.53;;;18.20;;
12660;SDS011;39039;51.802;5.710;2023-02-28T07:10:10;17.93;;;16.63;;
12660;SDS011;39039;51.802;5.710;2023-02-28T07:12:38;16.97;;;15.57;;
12660;SDS011;39039;51.802;5.710;2023-02-28T07:15:08;16.30;;;14.83;;
12660;SDS011;39039;51.802;5.710;2023-02-28T07:17:35;17.77;;;16.13;;
12660;SDS011;39039;51.802;5.710;2023-02-28T07:20:02;18.50;;;17.17;;
12660;SDS011;39039;51.802;5.710;2023-02-28T07:22:30;15.73;;;14.50;;
12660;SDS011;39039;51.802;5.710;2023-02-28T07:24:57;22.90;;;21.27;;
12660;SDS011;39039;51.802;5.710;2023-02-28T07:27:24;24.73;;;23.17;;
12660;SDS011;39039;51.802;5.710;2023-02-28T07:29:51;21.63;;;20.23;;
12660;SDS011;39039;51.802;5.710;2023-02-28T07:32:21;21.13;;;19.43;;
12660;SDS011;39039;51.802;5.710;2023-02-28T07:34:48;22.60;;;21.13;;
12660;SDS011;39039;51.802;5.710;2023-02-28T07:37:15;21.30;;;19.87;;
12660;SDS011;39039;51.802;5.710;2023-02-28T07:39:42;22.73;;;21.30;;
12660;SDS011;39039;51.802;5.710;2023-02-28T07:42:09;18.60;;;17.23;;
12660;SDS011;39039;51.802;5.710;2023-02-28T07:44:37;20.83;;;19.57;;
12660;SDS011;39039;51.802;5.710;2023-02-28T07:47:05;21.30;;;19.90;;
12660;SDS011;39039;51.802;5.710;2023-02-28T07:49:34;19.27;;;18.07;;
12660;SDS011;39039;51.802;5.710;2023-02-28T07:52:01;20.83;;;19.40;;
12660;SDS011;39039;51.802;5.710;2023-02-28T07:54:28;17.90;;;16.80;;
12660;SDS011;39039;51.802;5.710;2023-02-28T07:56:55;22.13;;;20.77;;
12660;SDS011;39039;51.802;5.710;2023-02-28T07:59:22;21.20;;;19.90;;
12660;SDS011;39039;51.802;5.710;2023-02-28T08:01:49;20.27;;;18.90;;
12660;SDS011;39039;51.802;5.710;2023-02-28T08:04:16;23.40;;;22.10;;
12660;SDS011;39039;51.802;5.710;2023-02-28T08:06:45;17.23;;;16.33;;
12660;SDS011;39039;51.802;5.710;2023-02-28T08:09:12;17.20;;;16.00;;
12660;SDS011;39039;51.802;5.710;2023-02-28T08:11:40;12.80;;;11.80;;
12660;SDS011;39039;51.802;5.710;2023-02-28T08:14:09;15.23;;;14.23;;
12660;SDS011;39039;51.802;5.710;2023-02-28T08:16:36;46.17;;;43.77;;
12660;SDS011;39039;51.802;5.710;2023-02-28T08:19:03;27.50;;;26.00;;
12660;SDS011;39039;51.802;5.710;2023-02-28T08:21:30;25.93;;;24.57;;
12660;SDS011;39039;51.802;5.710;2023-02-28T08:23:59;26.67;;;25.20;;
12660;SDS011;39039;51.802;5.710;2023-02-28T08:26:26;29.63;;;27.90;;
12660;SDS011;39039;51.802;5.710;2023-02-28T08:28:53;16.30;;;15.37;;
12660;SDS011;39039;51.802;5.710;2023-02-28T08:31:20;13.87;;;13.10;;
12660;SDS011;39039;51.802;5.710;2023-02-28T08:33:48;13.53;;;12.73;;
12660;SDS011;39039;51.802;5.710;2023-02-28T08:36:17;14.07;;;13.30;;
12660;SDS011;39039;51.802;5.710;2023-02-28T08:38:44;35.07;;;33.17;;
12660;SDS011;39039;51.802;5.710;2023-02-28T08:41:13;35.20;;;33.43;;
12660;SDS011;39039;51.802;5.710;2023-02-28T08:43:40;15.07;;;14.27;;
12660;SDS011;39039;51.802;5.710;2023-02-28T08:46:07;14.93;;;14.00;;
12660;SDS011;39039;51.802;5.710;2023-02-28T08:48:35;18.67;;;17.57;;
12660;SDS011;39039;51.802;5.710;2023-02-28T08:51:04;17.67;;;16.57;;
12660;SDS011;39039;51.802;5.710;2023-02-28T08:53:31;16.67;;;15.63;;
12660;SDS011;39039;51.802;5.710;2023-02-28T08:55:59;15.70;;;14.83;;
12660;SDS011;39039;51.802;5.710;2023-02-28T08:58:28;15.37;;;14.47;;
12660;SDS011;39039;51.802;5.710;2023-02-28T09:00:55;14.03;;;13.13;;
12660;SDS011;39039;51.802;5.710;2023-02-28T09:03:22;15.50;;;14.53;;
12660;SDS011;39039;51.802;5.710;2023-02-28T09:05:53;13.37;;;12.63;;
12660;SDS011;39039;51.802;5.710;2023-02-28T09:08:20;12.80;;;12.07;;
12660;SDS011;39039;51.802;5.710;2023-02-28T09:10:47;15.67;;;14.73;;
12660;SDS011;39039;51.802;5.710;2023-02-28T09:13:14;15.23;;;14.33;;
12660;SDS011;39039;51.802;5.710;2023-02-28T09:15:43;15.00;;;14.20;;
12660;SDS011;39039;51.802;5.710;2023-02-28T09:18:10;14.03;;;13.13;;
12660;SDS011;39039;51.802;5.710;2023-02-28T09:20:37;17.50;;;16.40;;
12660;SDS011;39039;51.802;5.710;2023-02-28T09:23:05;17.27;;;16.17;;
12660;SDS011;39039;51.802;5.710;2023-02-28T09:25:32;15.07;;;14.17;;
12660;SDS011;39039;51.802;5.710;2023-02-28T09:27:59;14.97;;;14.07;;
12660;SDS011;39039;51.802;5.710;2023-02-28T09:30:26;12.80;;;11.93;;
12660;SDS011;39039;51.802;5.710;2023-02-28T09:32:55;14.63;;;13.73;;
12660;SDS011;39039;51.802;5.710;2023-02-28T09:35:22;20.40;;;19.30;;
12660;SDS011;39039;51.802;5.710;2023-02-28T09:37:52;21.07;;;19.87;;
12660;SDS011;39039;51.802;5.710;2023-02-28T09:40:19;24.23;;;22.90;;
12660;SDS011;39039;51.802;5.710;2023-02-28T09:42:49;20.00;;;18.93;;
12660;SDS011;39039;51.802;5.710;2023-02-28T09:45:19;20.77;;;19.67;;
12660;SDS011;39039;51.802;5.710;2023-02-28T09:47:49;19.30;;;18.10;;
12660;SDS011;39039;51.802;5.710;2023-02-28T09:50:20;18.87;;;17.87;;
12660;SDS011;39039;51.802;5.710;2023-02-28T09:52:50;16.83;;;15.90;;
12660;SDS011;39039;51.802;5.710;2023-02-28T09:55:19;17.97;;;17.03;;
12660;SDS011;39039;51.802;5.710;2023-02-28T09:57:47;14.77;;;13.97;;
12660;SDS011;39039;51.802;5.710;2023-02-28T10:00:17;15.30;;;14.50;;
12660;SDS011;39039;51.802;5.710;2023-02-28T10:05:30;13.33;;;12.53;;
12660;SDS011;39039;51.802;5.710;2023-02-28T10:08:01;15.53;;;14.60;;
12660;SDS011;39039;51.802;5.710;2023-02-28T10:10:32;16.23;;;15.23;;
12660;SDS011;39039;51.802;5.710;2023-02-28T10:13:00;15.23;;;14.33;;
12660;SDS011;39039;51.802;5.710;2023-02-28T10:15:30;13.50;;;12.70;;
12660;SDS011;39039;51.802;5.710;2023-02-28T10:17:59;13.73;;;12.97;;
12660;SDS011;39039;51.802;5.710;2023-02-28T10:20:26;12.33;;;11.63;;
12660;SDS011;39039;51.802;5.710;2023-02-28T10:22:58;12.33;;;11.63;;
12660;SDS011;39039;51.802;5.710;2023-02-28T10:25:26;12.63;;;11.37;;
12660;SDS011;39039;51.802;5.710;2023-02-28T10:27:54;12.43;;;11.73;;
12660;SDS011;39039;51.802;5.710;2023-02-28T10:30:24;12.57;;;11.87;;
12660;SDS011;39039;51.802;5.710;2023-02-28T10:32:51;15.67;;;14.87;;
12660;SDS011;39039;51.802;5.710;2023-02-28T10:35:20;19.63;;;18.43;;
12660;SDS011;39039;51.802;5.710;2023-02-28T10:37:48;12.63;;;12.03;;
12660;SDS011;39039;51.802;5.710;2023-02-28T10:40:27;15.90;;;15.00;;
12660;SDS011;39039;51.802;5.710;2023-02-28T10:42:55;14.00;;;13.20;;
12660;SDS011;39039;51.802;5.710;2023-02-28T10:45:23;12.80;;;12.00;;
12660;SDS011;39039;51.802;5.710;2023-02-28T10:47:52;11.90;;;11.20;;
12660;SDS011;39039;51.802;5.710;2023-02-28T10:50:26;11.83;;;11.13;;
12660;SDS011;39039;51.802;5.710;2023-02-28T10:52:54;13.43;;;12.53;;
12660;SDS011;39039;51.802;5.710;2023-02-28T10:55:22;12.03;;;11.33;;
12660;SDS011;39039;51.802;5.710;2023-02-28T10:57:52;12.40;;;11.70;;
12660;SDS011;39039;51.802;5.710;2023-02-28T11:00:20;11.97;;;11.23;;
12660;SDS011;39039;51.802;5.710;2023-02-28T11:02:47;11.63;;;10.93;;
12660;SDS011;39039;51.802;5.710;2023-02-28T11:05:25;12.23;;;11.53;;
12660;SDS011;39039;51.802;5.710;2023-02-28T11:07:52;16.63;;;15.73;;
12660;SDS011;39039;51.802;5.710;2023-02-28T11:10:20;13.90;;;13.10;;
12660;SDS011;39039;51.802;5.710;2023-02-28T11:12:49;13.37;;;12.57;;
12660;SDS011;39039;51.802;5.710;2023-02-28T11:15:21;11.87;;;11.17;;
12660;SDS011;39039;51.802;5.710;2023-02-28T11:17:53;12.80;;;12.00;;
12660;SDS011;39039;51.802;5.710;2023-02-28T11:20:21;11.83;;;11.10;;
12660;SDS011;39039;51.802;5.710;2023-02-28T11:22:49;13.23;;;12.43;;
12660;SDS011;39039;51.802;5.710;2023-02-28T11:25:19;13.13;;;12.33;;
12660;SDS011;39039;51.802;5.710;2023-02-28T11:27:49;13.13;;;12.33;;
12660;SDS011;39039;51.802;5.710;2023-02-28T11:33:19;15.17;;;14.37;;
12660;SDS011;39039;51.802;5.710;2023-02-28T11:35:47;13.50;;;12.70;;
12660;SDS011;39039;51.802;5.710;2023-02-28T11:38:15;18.77;;;17.70;;
12660;SDS011;39039;51.802;5.710;2023-02-28T11:40:43;15.30;;;14.50;;
12660;SDS011;39039;51.802;5.710;2023-02-28T11:43:18;16.57;;;15.57;;
12660;SDS011;39039;51.802;5.710;2023-02-28T11:46:02;15.77;;;14.87;;
12660;SDS011;39039;51.802;5.710;2023-02-28T11:48:37;14.50;;;13.70;;
12660;SDS011;39039;51.802;5.710;2023-02-28T11:51:08;14.17;;;13.37;;
12660;SDS011;39039;51.802;5.710;2023-02-28T11:53:44;13.03;;;12.23;;
12660;SDS011;39039;51.802;5.710;2023-02-28T11:56:16;14.07;;;13.27;;
12660;SDS011;39039;51.802;5.710;2023-02-28T11:58:49;13.67;;;12.87;;
12660;SDS011;39039;51.802;5.710;2023-02-28T12:01:26;14.13;;;13.23;;
12660;SDS011;39039;51.802;5.710;2023-02-28T12:04:08;13.73;;;12.87;;
12660;SDS011;39039;51.802;5.710;2023-02-28T12:06:44;13.30;;;12.47;;
12660;SDS011;39039;51.802;5.710;2023-02-28T12:09:16;11.97;;;11.33;;
12660;SDS011;39039;51.802;5.710;2023-02-28T12:11:48;13.03;;;12.33;;
12660;SDS011;39039;51.802;5.710;2023-02-28T12:14:25;12.47;;;11.77;;
12660;SDS011;39039;51.802;5.710;2023-02-28T12:16:59;12.53;;;11.73;;
12660;SDS011;39039;51.802;5.710;2023-02-28T12:19:31;12.17;;;11.37;;
12660;SDS011;39039;51.802;5.710;2023-02-28T12:22:05;13.93;;;13.13;;
12660;SDS011;39039;51.802;5.710;2023-02-28T12:24:45;12.70;;;11.97;;
12660;SDS011;39039;51.802;5.710;2023-02-28T12:27:15;13.13;;;12.27;;
12660;SDS011;39039;51.802;5.710;2023-02-28T12:29:47;12.83;;;12.03;;
12660;SDS011;39039;51.802;5.710;2023-02-28T12:32:18;12.67;;;11.83;;
12660;SDS011;39039;51.802;5.710;2023-02-28T12:34:49;13.67;;;12.97;;
12660;SDS011;39039;51.802;5.710;2023-02-28T12:37:20;12.90;;;12.10;;
12660;SDS011;39039;51.802;5.710;2023-02-28T12:39:50;13.23;;;12.50;;
12660;SDS011;39039;51.802;5.710;2023-02-28T12:42:24;13.90;;;13.10;;
12660;SDS011;39039;51.802;5.710;2023-02-28T12:44:56;13.80;;;13.00;;
12660;SDS011;39039;51.802;5.710;2023-02-28T12:47:25;13.33;;;12.63;;
12660;SDS011;39039;51.802;5.710;2023-02-28T12:49:54;14.27;;;13.43;;
12660;SDS011;39039;51.802;5.710;2023-02-28T12:52:25;17.03;;;16.13;;
12660;SDS011;39039;51.802;5.710;2023-02-28T12:54:59;14.90;;;14.10;;
12660;SDS011;39039;51.802;5.710;2023-02-28T12:57:32;12.13;;;11.43;;
12660;SDS011;39039;51.802;5.710;2023-02-28T13:00:03;15.43;;;14.43;;
12660;SDS011;39039;51.802;5.710;2023-02-28T13:08:59;13.93;;;12.90;;
12660;SDS011;39039;51.802;5.710;2023-02-28T13:11:28;14.27;;;13.47;;
12660;SDS011;39039;51.802;5.710;2023-02-28T13:13:59;14.57;;;13.77;;
12660;SDS011;39039;51.802;5.710;2023-02-28T13:16:26;11.03;;;10.43;;
12660;SDS011;39039;51.802;5.710;2023-02-28T13:18:53;13.00;;;12.27;;
12660;SDS011;39039;51.802;5.710;2023-02-28T13:21:41;12.23;;;11.43;;
12660;SDS011;39039;51.802;5.710;2023-02-28T13:24:09;14.97;;;14.07;;
12660;SDS011;39039;51.802;5.710;2023-02-28T13:29:27;21.60;;;20.40;;
12660;SDS011;39039;51.802;5.710;2023-02-28T13:34:41;18.10;;;17.00;;
12660;SDS011;39039;51.802;5.710;2023-02-28T13:37:33;16.23;;;15.23;;
12660;SDS011;39039;51.802;5.710;2023-02-28T13:40:07;16.47;;;15.47;;
12660;SDS011;39039;51.802;5.710;2023-02-28T13:42:52;18.70;;;17.43;;
12660;SDS011;39039;51.802;5.710;2023-02-28T13:45:20;16.80;;;15.50;;
12660;SDS011;39039;51.802;5.710;2023-02-28T13:47:51;19.23;;;18.13;;
12660;SDS011;39039;51.802;5.710;2023-02-28T13:50:21;18.07;;;17.07;;
12660;SDS011;39039;51.802;5.710;2023-02-28T13:52:53;17.60;;;16.63;;
12660;SDS011;39039;51.802;5.710;2023-02-28T13:55:53;19.60;;;18.47;;
12660;SDS011;39039;51.802;5.710;2023-02-28T13:58:32;15.83;;;14.93;;
12660;SDS011;39039;51.802;5.710;2023-02-28T14:01:16;18.93;;;17.80;;
12660;SDS011;39039;51.802;5.710;2023-02-28T14:03:56;17.77;;;16.83;;
12660;SDS011;39039;51.802;5.710;2023-02-28T14:06:25;14.77;;;13.97;;
12660;SDS011;39039;51.802;5.710;2023-02-28T14:08:56;17.23;;;16.17;;
12660;SDS011;39039;51.802;5.710;2023-02-28T14:11:25;15.73;;;14.93;;
12660;SDS011;39039;51.802;5.710;2023-02-28T14:13:53;15.50;;;14.60;;
12660;SDS011;39039;51.802;5.710;2023-02-28T14:16:20;17.10;;;16.13;;
12660;SDS011;39039;51.802;5.710;2023-02-28T14:18:49;15.20;;;14.37;;
12660;SDS011;39039;51.802;5.710;2023-02-28T14:21:20;14.53;;;13.63;;
12660;SDS011;39039;51.802;5.710;2023-02-28T14:26:42;15.03;;;14.17;;
12660;SDS011;39039;51.802;5.710;2023-02-28T14:29:16;14.90;;;14.00;;
12660;SDS011;39039;51.802;5.710;2023-02-28T14:31:45;13.70;;;13.00;;
12660;SDS011;39039;51.802;5.710;2023-02-28T14:37:02;21.73;;;20.43;;
12660;SDS011;39039;51.802;5.710;2023-02-28T14:39:29;15.03;;;14.13;;
12660;SDS011;39039;51.802;5.710;2023-02-28T14:44:53;15.37;;;14.53;;
12660;SDS011;39039;51.802;5.710;2023-02-28T14:47:27;15.47;;;14.53;;
12660;SDS011;39039;51.802;5.710;2023-02-28T14:49:54;20.47;;;19.17;;
12660;SDS011;39039;51.802;5.710;2023-02-28T14:52:22;23.57;;;22.27;;
12660;SDS011;39039;51.802;5.710;2023-02-28T14:54:51;16.20;;;15.33;;
12660;SDS011;39039;51.802;5.710;2023-02-28T14:57:22;14.17;;;13.33;;
12660;SDS011;39039;51.802;5.710;2023-02-28T14:59:58;19.90;;;18.83;;
12660;SDS011;39039;51.802;5.710;2023-02-28T15:02:25;22.53;;;21.20;;
12660;SDS011;39039;51.802;5.710;2023-02-28T15:04:56;16.10;;;15.07;;
12660;SDS011;39039;51.802;5.710;2023-02-28T15:07:24;17.90;;;16.87;;
12660;SDS011;39039;51.802;5.710;2023-02-28T15:10:10;17.53;;;16.63;;
12660;SDS011;39039;51.802;5.710;2023-02-28T15:12:39;16.43;;;15.23;;